sensor_id;sensor_type;location;lat;lon;timestamp;P1;durP1;ratioP1;P2;durP2;ratioP2
6372;SDS011;3219;51.362;7.074;2023-05-23T00:00:59;10.20;;;8.32;;
6372;SDS011;3219;51.362;7.074;2023-05-23T00:03:27;12.82;;;10.43;;
6372;SDS011;3219;51.362;7.074;2023-05-23T00:05:55;10.23;;;8.35;;
6372;SDS011;3219;51.362;7.074;2023-05-23T00:08:23;9.57;;;7.63;;
6372;SDS011;3219;51.362;7.074;2023-05-23T00:10:50;9.65;;;8.25;;
6372;SDS011;3219;51.362;7.074;2023-05-23T00:13:18;9.73;;;8.25;;
6372;SDS011;3219;51.362;7.074;2023-05-23T00:15:45;9.57;;;7.47;;
6372;SDS011;3219;51.362;7.074;2023-05-23T00:18:12;10.70;;;8.38;;
6372;SDS011;3219;51.362;7.074;2023-05-23T00:20:41;9.43;;;7.55;;
6372;SDS011;3219;51.362;7.074;2023-05-23T00:23:09;8.85;;;7.43;;
6372;SDS011;3219;51.362;7.074;2023-05-23T00:25:42;8.07;;;7.13;;
6372;SDS011;3219;51.362;7.074;2023-05-23T00:28:12;7.78;;;6.55;;
6372;SDS011;3219;51.362;7.074;2023-05-23T00:30:39;6.53;;;5.63;;
6372;SDS011;3219;51.362;7.074;2023-05-23T00:33:05;7.60;;;6.47;;
6372;SDS011;3219;51.362;7.074;2023-05-23T00:35:33;8.52;;;7.07;;
6372;SDS011;3219;51.362;7.074;2023-05-23T00:38:02;8.10;;;6.35;;
6372;SDS011;3219;51.362;7.074;2023-05-23T00:40:31;8.93;;;6.18;;
6372;SDS011;3219;51.362;7.074;2023-05-23T00:42:59;5.90;;;5.13;;
6372;SDS011;3219;51.362;7.074;2023-05-23T00:45:26;7.53;;;5.47;;
6372;SDS011;3219;51.362;7.074;2023-05-23T00:47:53;6.45;;;5.18;;
6372;SDS011;3219;51.362;7.074;2023-05-23T00:50:20;6.43;;;5.28;;
6372;SDS011;3219;51.362;7.074;2023-05-23T00:52:47;6.45;;;5.10;;
6372;SDS011;3219;51.362;7.074;2023-05-23T00:55:16;4.80;;;4.28;;
6372;SDS011;3219;51.362;7.074;2023-05-23T00:57:43;6.07;;;5.47;;
6372;SDS011;3219;51.362;7.074;2023-05-23T01:00:10;6.07;;;4.78;;
6372;SDS011;3219;51.362;7.074;2023-05-23T01:02:41;5.40;;;4.53;;
6372;SDS011;3219;51.362;7.074;2023-05-23T01:05:09;5.65;;;4.97;;
6372;SDS011;3219;51.362;7.074;2023-05-23T01:07:38;5.28;;;3.92;;
6372;SDS011;3219;51.362;7.074;2023-05-23T01:10:08;6.78;;;4.35;;
6372;SDS011;3219;51.362;7.074;2023-05-23T01:12:40;5.47;;;4.82;;
6372;SDS011;3219;51.362;7.074;2023-05-23T01:15:16;5.25;;;4.75;;
6372;SDS011;3219;51.362;7.074;2023-05-23T01:20:13;4.53;;;3.80;;
6372;SDS011;3219;51.362;7.074;2023-05-23T01:22:48;4.78;;;3.67;;
6372;SDS011;3219;51.362;7.074;2023-05-23T01:25:22;4.53;;;4.13;;
6372;SDS011;3219;51.362;7.074;2023-05-23T01:30:25;6.03;;;4.75;;
6372;SDS011;3219;51.362;7.074;2023-05-23T01:32:55;5.47;;;4.97;;
6372;SDS011;3219;51.362;7.074;2023-05-23T01:35:25;5.45;;;4.60;;
6372;SDS011;3219;51.362;7.074;2023-05-23T01:37:52;5.05;;;4.13;;
6372;SDS011;3219;51.362;7.074;2023-05-23T01:40:19;5.70;;;4.25;;
6372;SDS011;3219;51.362;7.074;2023-05-23T01:42:46;5.20;;;4.05;;
6372;SDS011;3219;51.362;7.074;2023-05-23T01:45:14;4.03;;;3.50;;
6372;SDS011;3219;51.362;7.074;2023-05-23T01:47:42;4.22;;;3.70;;
6372;SDS011;3219;51.362;7.074;2023-05-23T01:50:10;5.80;;;4.35;;
6372;SDS011;3219;51.362;7.074;2023-05-23T01:55:06;4.13;;;3.63;;
6372;SDS011;3219;51.362;7.074;2023-05-23T01:57:36;4.63;;;3.67;;
6372;SDS011;3219;51.362;7.074;2023-05-23T02:00:04;4.85;;;3.72;;
6372;SDS011;3219;51.362;7.074;2023-05-23T02:02:32;4.30;;;3.80;;
6372;SDS011;3219;51.362;7.074;2023-05-23T02:05:00;4.40;;;3.78;;
6372;SDS011;3219;51.362;7.074;2023-05-23T02:07:27;4.38;;;3.97;;
6372;SDS011;3219;51.362;7.074;2023-05-23T02:09:54;5.28;;;3.70;;
6372;SDS011;3219;51.362;7.074;2023-05-23T02:12:21;5.75;;;4.97;;
6372;SDS011;3219;51.362;7.074;2023-05-23T02:14:49;7.82;;;6.07;;
6372;SDS011;3219;51.362;7.074;2023-05-23T02:17:16;6.07;;;5.13;;
6372;SDS011;3219;51.362;7.074;2023-05-23T02:19:45;7.63;;;5.90;;
6372;SDS011;3219;51.362;7.074;2023-05-23T02:22:12;8.25;;;6.10;;
6372;SDS011;3219;51.362;7.074;2023-05-23T02:24:39;6.88;;;5.95;;
6372;SDS011;3219;51.362;7.074;2023-05-23T02:27:06;6.75;;;4.65;;
6372;SDS011;3219;51.362;7.074;2023-05-23T02:29:33;8.45;;;6.88;;
6372;SDS011;3219;51.362;7.074;2023-05-23T02:31:59;6.97;;;5.90;;
6372;SDS011;3219;51.362;7.074;2023-05-23T02:34:26;8.13;;;6.57;;
6372;SDS011;3219;51.362;7.074;2023-05-23T02:36:55;6.68;;;5.82;;
6372;SDS011;3219;51.362;7.074;2023-05-23T02:39:21;9.30;;;7.18;;
6372;SDS011;3219;51.362;7.074;2023-05-23T02:41:48;10.90;;;6.93;;
6372;SDS011;3219;51.362;7.074;2023-05-23T02:44:15;9.18;;;7.60;;
6372;SDS011;3219;51.362;7.074;2023-05-23T02:46:43;9.02;;;7.97;;
6372;SDS011;3219;51.362;7.074;2023-05-23T02:49:10;8.82;;;7.45;;
6372;SDS011;3219;51.362;7.074;2023-05-23T02:51:37;9.98;;;6.53;;
6372;SDS011;3219;51.362;7.074;2023-05-23T02:54:05;7.95;;;6.20;;
6372;SDS011;3219;51.362;7.074;2023-05-23T02:56:31;7.60;;;5.28;;
6372;SDS011;3219;51.362;7.074;2023-05-23T02:58:58;10.80;;;5.75;;
6372;SDS011;3219;51.362;7.074;2023-05-23T03:01:25;8.35;;;6.18;;
6372;SDS011;3219;51.362;7.074;2023-05-23T03:03:52;8.57;;;6.15;;
6372;SDS011;3219;51.362;7.074;2023-05-23T03:06:18;9.25;;;6.45;;
6372;SDS011;3219;51.362;7.074;2023-05-23T03:08:46;8.25;;;5.70;;
6372;SDS011;3219;51.362;7.074;2023-05-23T03:11:14;7.60;;;6.03;;
6372;SDS011;3219;51.362;7.074;2023-05-23T03:13:41;7.63;;;5.53;;
6372;SDS011;3219;51.362;7.074;2023-05-23T03:16:08;7.85;;;5.47;;
6372;SDS011;3219;51.362;7.074;2023-05-23T03:18:36;8.27;;;4.97;;
6372;SDS011;3219;51.362;7.074;2023-05-23T03:21:05;7.43;;;5.82;;
6372;SDS011;3219;51.362;7.074;2023-05-23T03:23:32;6.95;;;5.03;;
6372;SDS011;3219;51.362;7.074;2023-05-23T03:26:00;5.97;;;4.80;;
6372;SDS011;3219;51.362;7.074;2023-05-23T03:28:28;8.98;;;4.10;;
6372;SDS011;3219;51.362;7.074;2023-05-23T03:30:56;7.68;;;4.75;;
6372;SDS011;3219;51.362;7.074;2023-05-23T03:33:23;6.82;;;4.57;;
6372;SDS011;3219;51.362;7.074;2023-05-23T03:35:49;6.15;;;4.47;;
6372;SDS011;3219;51.362;7.074;2023-05-23T03:38:16;5.45;;;4.30;;
6372;SDS011;3219;51.362;7.074;2023-05-23T03:40:43;7.65;;;5.70;;
6372;SDS011;3219;51.362;7.074;2023-05-23T03:43:10;7.07;;;4.28;;
6372;SDS011;3219;51.362;7.074;2023-05-23T03:45:38;7.43;;;4.30;;
6372;SDS011;3219;51.362;7.074;2023-05-23T03:48:05;6.47;;;4.40;;
6372;SDS011;3219;51.362;7.074;2023-05-23T03:50:32;7.13;;;5.78;;
6372;SDS011;3219;51.362;7.074;2023-05-23T03:52:59;9.80;;;5.05;;
6372;SDS011;3219;51.362;7.074;2023-05-23T03:55:26;8.00;;;4.90;;
6372;SDS011;3219;51.362;7.074;2023-05-23T03:57:55;7.85;;;5.18;;
6372;SDS011;3219;51.362;7.074;2023-05-23T04:00:22;9.27;;;5.53;;
6372;SDS011;3219;51.362;7.074;2023-05-23T04:02:51;8.70;;;4.95;;
6372;SDS011;3219;51.362;7.074;2023-05-23T04:05:18;7.57;;;5.90;;
6372;SDS011;3219;51.362;7.074;2023-05-23T04:07:45;6.97;;;5.95;;
6372;SDS011;3219;51.362;7.074;2023-05-23T04:10:12;7.15;;;5.03;;
6372;SDS011;3219;51.362;7.074;2023-05-23T04:12:39;7.38;;;5.35;;
6372;SDS011;3219;51.362;7.074;2023-05-23T04:15:07;9.00;;;5.70;;
6372;SDS011;3219;51.362;7.074;2023-05-23T04:17:35;7.90;;;5.95;;
6372;SDS011;3219;51.362;7.074;2023-05-23T04:20:04;7.07;;;5.10;;
6372;SDS011;3219;51.362;7.074;2023-05-23T04:22:33;6.13;;;4.45;;
6372;SDS011;3219;51.362;7.074;2023-05-23T04:25:00;8.02;;;5.38;;
6372;SDS011;3219;51.362;7.074;2023-05-23T04:27:27;8.98;;;5.43;;
6372;SDS011;3219;51.362;7.074;2023-05-23T04:29:54;7.68;;;5.88;;
6372;SDS011;3219;51.362;7.074;2023-05-23T04:32:24;9.88;;;6.18;;
6372;SDS011;3219;51.362;7.074;2023-05-23T04:34:52;9.57;;;5.68;;
6372;SDS011;3219;51.362;7.074;2023-05-23T04:37:22;10.30;;;6.40;;
6372;SDS011;3219;51.362;7.074;2023-05-23T04:39:50;13.55;;;5.57;;
6372;SDS011;3219;51.362;7.074;2023-05-23T04:42:18;8.85;;;6.57;;
6372;SDS011;3219;51.362;7.074;2023-05-23T04:44:48;8.45;;;5.90;;
6372;SDS011;3219;51.362;7.074;2023-05-23T04:47:16;8.80;;;5.57;;
6372;SDS011;3219;51.362;7.074;2023-05-23T04:49:45;9.25;;;6.60;;
6372;SDS011;3219;51.362;7.074;2023-05-23T04:52:14;9.63;;;6.18;;
6372;SDS011;3219;51.362;7.074;2023-05-23T04:54:45;10.95;;;6.78;;
6372;SDS011;3219;51.362;7.074;2023-05-23T04:57:14;11.68;;;6.78;;
6372;SDS011;3219;51.362;7.074;2023-05-23T04:59:41;8.57;;;5.88;;
6372;SDS011;3219;51.362;7.074;2023-05-23T05:02:07;10.25;;;6.32;;
6372;SDS011;3219;51.362;7.074;2023-05-23T05:04:34;11.32;;;6.47;;
6372;SDS011;3219;51.362;7.074;2023-05-23T05:07:01;9.65;;;5.22;;
6372;SDS011;3219;51.362;7.074;2023-05-23T05:09:28;8.60;;;6.95;;
6372;SDS011;3219;51.362;7.074;2023-05-23T05:11:56;10.20;;;4.95;;
6372;SDS011;3219;51.362;7.074;2023-05-23T05:14:24;10.23;;;6.80;;
6372;SDS011;3219;51.362;7.074;2023-05-23T05:16:52;9.88;;;6.63;;
6372;SDS011;3219;51.362;7.074;2023-05-23T05:19:22;9.68;;;6.32;;
6372;SDS011;3219;51.362;7.074;2023-05-23T05:21:51;9.48;;;5.97;;
6372;SDS011;3219;51.362;7.074;2023-05-23T05:24:18;10.32;;;6.80;;
6372;SDS011;3219;51.362;7.074;2023-05-23T05:26:47;11.75;;;6.95;;
6372;SDS011;3219;51.362;7.074;2023-05-23T05:29:16;10.40;;;7.28;;
6372;SDS011;3219;51.362;7.074;2023-05-23T05:31:43;11.52;;;7.15;;
6372;SDS011;3219;51.362;7.074;2023-05-23T05:34:11;9.55;;;7.20;;
6372;SDS011;3219;51.362;7.074;2023-05-23T05:36:38;8.07;;;6.20;;
6372;SDS011;3219;51.362;7.074;2023-05-23T05:39:10;10.07;;;7.03;;
6372;SDS011;3219;51.362;7.074;2023-05-23T05:41:37;10.52;;;6.68;;
6372;SDS011;3219;51.362;7.074;2023-05-23T05:44:04;11.70;;;8.57;;
6372;SDS011;3219;51.362;7.074;2023-05-23T05:46:32;11.38;;;7.30;;
6372;SDS011;3219;51.362;7.074;2023-05-23T05:49:00;12.38;;;7.03;;
6372;SDS011;3219;51.362;7.074;2023-05-23T05:51:27;13.50;;;8.25;;
6372;SDS011;3219;51.362;7.074;2023-05-23T05:53:55;15.80;;;7.70;;
6372;SDS011;3219;51.362;7.074;2023-05-23T05:56:22;11.00;;;7.93;;
6372;SDS011;3219;51.362;7.074;2023-05-23T05:58:50;11.77;;;7.70;;
6372;SDS011;3219;51.362;7.074;2023-05-23T06:01:17;12.32;;;7.90;;
6372;SDS011;3219;51.362;7.074;2023-05-23T06:03:45;9.73;;;6.03;;
6372;SDS011;3219;51.362;7.074;2023-05-23T06:06:12;10.43;;;7.40;;
6372;SDS011;3219;51.362;7.074;2023-05-23T06:08:38;13.80;;;7.95;;
6372;SDS011;3219;51.362;7.074;2023-05-23T06:11:06;9.93;;;7.15;;
6372;SDS011;3219;51.362;7.074;2023-05-23T06:13:33;11.77;;;6.57;;
6372;SDS011;3219;51.362;7.074;2023-05-23T06:15:59;8.68;;;6.32;;
6372;SDS011;3219;51.362;7.074;2023-05-23T06:18:26;8.55;;;6.10;;
6372;SDS011;3219;51.362;7.074;2023-05-23T06:20:54;13.35;;;7.63;;
6372;SDS011;3219;51.362;7.074;2023-05-23T06:23:21;11.57;;;7.15;;
6372;SDS011;3219;51.362;7.074;2023-05-23T06:25:48;10.57;;;6.38;;
6372;SDS011;3219;51.362;7.074;2023-05-23T06:28:15;9.48;;;7.18;;
6372;SDS011;3219;51.362;7.074;2023-05-23T06:30:41;11.07;;;7.65;;
6372;SDS011;3219;51.362;7.074;2023-05-23T06:33:08;9.18;;;6.10;;
6372;SDS011;3219;51.362;7.074;2023-05-23T06:35:36;8.85;;;6.35;;
6372;SDS011;3219;51.362;7.074;2023-05-23T06:38:04;11.38;;;7.22;;
6372;SDS011;3219;51.362;7.074;2023-05-23T06:40:31;10.75;;;7.32;;
6372;SDS011;3219;51.362;7.074;2023-05-23T06:42:57;9.30;;;8.18;;
6372;SDS011;3219;51.362;7.074;2023-05-23T06:45:24;10.18;;;7.13;;
6372;SDS011;3219;51.362;7.074;2023-05-23T06:47:51;9.82;;;7.20;;
6372;SDS011;3219;51.362;7.074;2023-05-23T06:50:17;8.70;;;6.40;;
6372;SDS011;3219;51.362;7.074;2023-05-23T06:52:44;8.68;;;5.63;;
6372;SDS011;3219;51.362;7.074;2023-05-23T06:55:13;11.55;;;6.75;;
6372;SDS011;3219;51.362;7.074;2023-05-23T06:57:43;7.70;;;6.00;;
6372;SDS011;3219;51.362;7.074;2023-05-23T07:00:10;11.95;;;6.93;;
6372;SDS011;3219;51.362;7.074;2023-05-23T07:02:38;7.90;;;5.15;;
6372;SDS011;3219;51.362;7.074;2023-05-23T07:05:05;7.00;;;5.65;;
6372;SDS011;3219;51.362;7.074;2023-05-23T07:07:33;10.65;;;5.85;;
6372;SDS011;3219;51.362;7.074;2023-05-23T07:09:59;8.25;;;6.05;;
6372;SDS011;3219;51.362;7.074;2023-05-23T07:12:27;9.70;;;6.43;;
6372;SDS011;3219;51.362;7.074;2023-05-23T07:14:54;7.93;;;6.57;;
6372;SDS011;3219;51.362;7.074;2023-05-23T07:17:21;7.07;;;5.90;;
6372;SDS011;3219;51.362;7.074;2023-05-23T07:19:48;9.25;;;6.65;;
6372;SDS011;3219;51.362;7.074;2023-05-23T07:22:14;9.50;;;6.32;;
6372;SDS011;3219;51.362;7.074;2023-05-23T07:24:41;9.40;;;6.80;;
6372;SDS011;3219;51.362;7.074;2023-05-23T07:27:08;9.70;;;6.55;;
6372;SDS011;3219;51.362;7.074;2023-05-23T07:29:36;11.13;;;7.55;;
6372;SDS011;3219;51.362;7.074;2023-05-23T07:32:03;10.38;;;6.82;;
6372;SDS011;3219;51.362;7.074;2023-05-23T07:34:30;12.55;;;6.53;;
6372;SDS011;3219;51.362;7.074;2023-05-23T07:36:57;10.02;;;7.03;;
6372;SDS011;3219;51.362;7.074;2023-05-23T07:39:23;11.77;;;6.68;;
6372;SDS011;3219;51.362;7.074;2023-05-23T07:41:51;10.20;;;7.50;;
6372;SDS011;3219;51.362;7.074;2023-05-23T07:44:18;10.02;;;6.18;;
6372;SDS011;3219;51.362;7.074;2023-05-23T07:46:46;12.82;;;8.52;;
6372;SDS011;3219;51.362;7.074;2023-05-23T07:49:13;12.40;;;6.72;;
6372;SDS011;3219;51.362;7.074;2023-05-23T07:51:40;11.75;;;6.97;;
6372;SDS011;3219;51.362;7.074;2023-05-23T07:54:07;12.50;;;8.07;;
6372;SDS011;3219;51.362;7.074;2023-05-23T07:56:34;12.52;;;8.23;;
6372;SDS011;3219;51.362;7.074;2023-05-23T07:59:02;10.98;;;7.60;;
6372;SDS011;3219;51.362;7.074;2023-05-23T08:01:29;15.13;;;8.32;;
6372;SDS011;3219;51.362;7.074;2023-05-23T08:03:57;12.70;;;7.88;;
6372;SDS011;3219;51.362;7.074;2023-05-23T08:06:24;12.98;;;6.68;;
6372;SDS011;3219;51.362;7.074;2023-05-23T08:08:51;10.13;;;6.47;;
6372;SDS011;3219;51.362;7.074;2023-05-23T08:11:18;10.32;;;6.68;;
6372;SDS011;3219;51.362;7.074;2023-05-23T08:13:44;11.18;;;7.30;;
6372;SDS011;3219;51.362;7.074;2023-05-23T08:16:11;10.57;;;7.22;;
6372;SDS011;3219;51.362;7.074;2023-05-23T08:18:38;9.90;;;6.22;;
6372;SDS011;3219;51.362;7.074;2023-05-23T08:21:06;10.85;;;6.57;;
6372;SDS011;3219;51.362;7.074;2023-05-23T08:23:33;10.70;;;7.45;;
6372;SDS011;3219;51.362;7.074;2023-05-23T08:26:00;10.88;;;6.22;;
6372;SDS011;3219;51.362;7.074;2023-05-23T08:28:27;10.45;;;6.38;;
6372;SDS011;3219;51.362;7.074;2023-05-23T08:30:54;10.30;;;6.97;;
6372;SDS011;3219;51.362;7.074;2023-05-23T08:33:22;15.73;;;7.07;;
6372;SDS011;3219;51.362;7.074;2023-05-23T08:35:48;12.38;;;8.00;;
6372;SDS011;3219;51.362;7.074;2023-05-23T08:38:17;11.13;;;8.13;;
6372;SDS011;3219;51.362;7.074;2023-05-23T08:40:48;13.20;;;9.35;;
6372;SDS011;3219;51.362;7.074;2023-05-23T08:43:16;16.45;;;8.93;;
6372;SDS011;3219;51.362;7.074;2023-05-23T08:45:42;13.93;;;9.23;;
6372;SDS011;3219;51.362;7.074;2023-05-23T08:48:10;11.88;;;8.15;;
6372;SDS011;3219;51.362;7.074;2023-05-23T08:53:08;16.77;;;10.35;;
6372;SDS011;3219;51.362;7.074;2023-05-23T08:55:36;16.02;;;9.65;;
6372;SDS011;3219;51.362;7.074;2023-05-23T08:58:03;14.57;;;8.65;;
6372;SDS011;3219;51.362;7.074;2023-05-23T09:00:30;13.68;;;8.02;;
6372;SDS011;3219;51.362;7.074;2023-05-23T09:02:58;12.63;;;7.53;;
6372;SDS011;3219;51.362;7.074;2023-05-23T09:05:25;9.88;;;5.28;;
6372;SDS011;3219;51.362;7.074;2023-05-23T09:07:52;10.32;;;6.80;;
6372;SDS011;3219;51.362;7.074;2023-05-23T09:10:19;8.23;;;5.40;;
6372;SDS011;3219;51.362;7.074;2023-05-23T09:12:48;8.35;;;5.07;;
6372;SDS011;3219;51.362;7.074;2023-05-23T09:15:15;9.73;;;5.45;;
6372;SDS011;3219;51.362;7.074;2023-05-23T09:17:42;8.43;;;5.25;;
6372;SDS011;3219;51.362;7.074;2023-05-23T09:20:10;9.32;;;6.20;;
6372;SDS011;3219;51.362;7.074;2023-05-23T09:22:38;10.38;;;6.43;;
6372;SDS011;3219;51.362;7.074;2023-05-23T09:25:05;13.25;;;5.82;;
6372;SDS011;3219;51.362;7.074;2023-05-23T09:27:33;12.13;;;6.72;;
6372;SDS011;3219;51.362;7.074;2023-05-23T09:30:05;11.23;;;6.15;;
6372;SDS011;3219;51.362;7.074;2023-05-23T09:32:33;13.52;;;6.68;;
6372;SDS011;3219;51.362;7.074;2023-05-23T09:35:00;15.18;;;8.35;;
6372;SDS011;3219;51.362;7.074;2023-05-23T09:37:28;13.48;;;8.27;;
6372;SDS011;3219;51.362;7.074;2023-05-23T09:39:57;18.00;;;6.78;;
6372;SDS011;3219;51.362;7.074;2023-05-23T09:42:24;11.35;;;7.70;;
6372;SDS011;3219;51.362;7.074;2023-05-23T09:44:57;14.85;;;7.25;;
6372;SDS011;3219;51.362;7.074;2023-05-23T09:47:25;15.45;;;7.43;;
6372;SDS011;3219;51.362;7.074;2023-05-23T09:49:52;12.90;;;6.80;;
6372;SDS011;3219;51.362;7.074;2023-05-23T09:52:19;8.13;;;6.00;;
6372;SDS011;3219;51.362;7.074;2023-05-23T09:54:46;11.20;;;6.80;;
6372;SDS011;3219;51.362;7.074;2023-05-23T09:57:14;13.10;;;7.13;;
6372;SDS011;3219;51.362;7.074;2023-05-23T09:59:41;7.57;;;6.00;;
6372;SDS011;3219;51.362;7.074;2023-05-23T10:02:16;11.57;;;5.55;;
6372;SDS011;3219;51.362;7.074;2023-05-23T10:05:02;7.85;;;5.78;;
6372;SDS011;3219;51.362;7.074;2023-05-23T10:07:31;9.05;;;5.57;;
6372;SDS011;3219;51.362;7.074;2023-05-23T10:10:02;8.43;;;5.22;;
6372;SDS011;3219;51.362;7.074;2023-05-23T10:12:39;8.73;;;5.55;;
6372;SDS011;3219;51.362;7.074;2023-05-23T10:15:10;10.20;;;5.43;;
6372;SDS011;3219;51.362;7.074;2023-05-23T10:17:45;7.55;;;5.20;;
6372;SDS011;3219;51.362;7.074;2023-05-23T10:20:28;9.68;;;4.97;;
6372;SDS011;3219;51.362;7.074;2023-05-23T10:22:57;9.75;;;5.13;;
6372;SDS011;3219;51.362;7.074;2023-05-23T10:25:25;10.18;;;5.28;;
6372;SDS011;3219;51.362;7.074;2023-05-23T10:27:52;11.30;;;6.03;;
6372;SDS011;3219;51.362;7.074;2023-05-23T10:30:22;10.00;;;5.93;;
6372;SDS011;3219;51.362;7.074;2023-05-23T10:32:51;14.63;;;9.43;;
6372;SDS011;3219;51.362;7.074;2023-05-23T10:35:20;18.75;;;10.45;;
6372;SDS011;3219;51.362;7.074;2023-05-23T10:37:52;12.65;;;9.25;;
6372;SDS011;3219;51.362;7.074;2023-05-23T10:40:26;13.52;;;8.50;;
6372;SDS011;3219;51.362;7.074;2023-05-23T10:43:00;11.43;;;7.95;;
6372;SDS011;3219;51.362;7.074;2023-05-23T10:45:38;12.30;;;8.77;;
6372;SDS011;3219;51.362;7.074;2023-05-23T10:48:18;14.07;;;10.57;;
6372;SDS011;3219;51.362;7.074;2023-05-23T10:50:47;14.27;;;11.02;;
6372;SDS011;3219;51.362;7.074;2023-05-23T10:53:28;14.05;;;7.63;;
6372;SDS011;3219;51.362;7.074;2023-05-23T10:55:55;13.90;;;7.60;;
6372;SDS011;3219;51.362;7.074;2023-05-23T10:58:22;9.80;;;7.22;;
6372;SDS011;3219;51.362;7.074;2023-05-23T11:00:50;10.88;;;6.28;;
6372;SDS011;3219;51.362;7.074;2023-05-23T11:03:26;12.30;;;7.22;;
6372;SDS011;3219;51.362;7.074;2023-05-23T11:06:00;11.15;;;6.93;;
6372;SDS011;3219;51.362;7.074;2023-05-23T11:08:28;10.85;;;7.13;;
6372;SDS011;3219;51.362;7.074;2023-05-23T11:11:02;9.43;;;5.75;;
6372;SDS011;3219;51.362;7.074;2023-05-23T11:16:26;9.85;;;6.68;;
6372;SDS011;3219;51.362;7.074;2023-05-23T11:21:52;7.55;;;5.57;;
6372;SDS011;3219;51.362;7.074;2023-05-23T11:24:20;9.13;;;6.05;;
6372;SDS011;3219;51.362;7.074;2023-05-23T11:26:51;7.70;;;5.05;;
6372;SDS011;3219;51.362;7.074;2023-05-23T11:29:19;10.35;;;5.40;;
6372;SDS011;3219;51.362;7.074;2023-05-23T11:31:45;11.40;;;5.93;;
6372;SDS011;3219;51.362;7.074;2023-05-23T11:34:12;8.35;;;5.03;;
6372;SDS011;3219;51.362;7.074;2023-05-23T11:36:40;9.18;;;5.80;;
6372;SDS011;3219;51.362;7.074;2023-05-23T11:39:07;9.60;;;5.53;;
6372;SDS011;3219;51.362;7.074;2023-05-23T11:41:34;8.55;;;5.10;;
6372;SDS011;3219;51.362;7.074;2023-05-23T11:44:08;8.27;;;5.55;;
6372;SDS011;3219;51.362;7.074;2023-05-23T11:46:36;10.25;;;6.03;;
6372;SDS011;3219;51.362;7.074;2023-05-23T11:49:08;8.05;;;4.68;;
6372;SDS011;3219;51.362;7.074;2023-05-23T11:51:36;6.35;;;4.30;;
6372;SDS011;3219;51.362;7.074;2023-05-23T11:54:04;10.35;;;4.60;;
6372;SDS011;3219;51.362;7.074;2023-05-23T11:56:37;11.23;;;5.28;;
6372;SDS011;3219;51.362;7.074;2023-05-23T11:59:04;9.93;;;5.30;;
6372;SDS011;3219;51.362;7.074;2023-05-23T12:01:31;9.95;;;4.43;;
6372;SDS011;3219;51.362;7.074;2023-05-23T12:03:58;6.25;;;4.32;;
6372;SDS011;3219;51.362;7.074;2023-05-23T12:06:25;7.10;;;4.70;;
6372;SDS011;3219;51.362;7.074;2023-05-23T12:08:52;9.48;;;4.15;;
6372;SDS011;3219;51.362;7.074;2023-05-23T12:11:20;8.75;;;4.95;;
6372;SDS011;3219;51.362;7.074;2023-05-23T12:16:17;10.88;;;4.45;;
6372;SDS011;3219;51.362;7.074;2023-05-23T12:18:44;7.32;;;4.13;;
6372;SDS011;3219;51.362;7.074;2023-05-23T12:21:10;8.20;;;3.55;;
6372;SDS011;3219;51.362;7.074;2023-05-23T12:23:38;7.38;;;3.83;;
6372;SDS011;3219;51.362;7.074;2023-05-23T12:26:05;9.55;;;4.15;;
6372;SDS011;3219;51.362;7.074;2023-05-23T12:28:35;8.80;;;4.95;;
6372;SDS011;3219;51.362;7.074;2023-05-23T12:33:37;7.05;;;4.18;;
6372;SDS011;3219;51.362;7.074;2023-05-23T12:36:04;6.32;;;4.63;;
6372;SDS011;3219;51.362;7.074;2023-05-23T12:38:31;10.38;;;4.82;;
6372;SDS011;3219;51.362;7.074;2023-05-23T12:41:08;8.82;;;4.32;;
6372;SDS011;3219;51.362;7.074;2023-05-23T12:43:38;7.20;;;4.65;;
6372;SDS011;3219;51.362;7.074;2023-05-23T12:46:05;8.20;;;5.30;;
6372;SDS011;3219;51.362;7.074;2023-05-23T12:48:31;10.40;;;4.57;;
6372;SDS011;3219;51.362;7.074;2023-05-23T12:50:58;9.38;;;4.88;;
6372;SDS011;3219;51.362;7.074;2023-05-23T12:53:28;9.52;;;4.22;;
6372;SDS011;3219;51.362;7.074;2023-05-23T12:55:55;8.68;;;5.55;;
6372;SDS011;3219;51.362;7.074;2023-05-23T12:58:21;6.30;;;4.47;;
6372;SDS011;3219;51.362;7.074;2023-05-23T13:00:50;9.65;;;4.65;;
6372;SDS011;3219;51.362;7.074;2023-05-23T13:03:17;11.07;;;5.05;;
6372;SDS011;3219;51.362;7.074;2023-05-23T13:05:44;8.15;;;4.93;;
6372;SDS011;3219;51.362;7.074;2023-05-23T13:08:10;7.57;;;4.30;;
6372;SDS011;3219;51.362;7.074;2023-05-23T13:10:37;11.82;;;4.07;;
6372;SDS011;3219;51.362;7.074;2023-05-23T13:13:04;9.63;;;3.80;;
6372;SDS011;3219;51.362;7.074;2023-05-23T13:15:31;8.23;;;3.90;;
6372;SDS011;3219;51.362;7.074;2023-05-23T13:17:59;6.55;;;4.60;;
6372;SDS011;3219;51.362;7.074;2023-05-23T13:20:26;8.13;;;4.13;;
6372;SDS011;3219;51.362;7.074;2023-05-23T13:22:54;7.05;;;3.70;;
6372;SDS011;3219;51.362;7.074;2023-05-23T13:25:21;12.23;;;4.75;;
6372;SDS011;3219;51.362;7.074;2023-05-23T13:27:48;7.40;;;3.45;;
6372;SDS011;3219;51.362;7.074;2023-05-23T13:30:15;6.18;;;3.90;;
6372;SDS011;3219;51.362;7.074;2023-05-23T13:32:42;8.38;;;3.85;;
6372;SDS011;3219;51.362;7.074;2023-05-23T13:35:10;14.35;;;6.35;;
6372;SDS011;3219;51.362;7.074;2023-05-23T13:37:38;12.63;;;4.35;;
6372;SDS011;3219;51.362;7.074;2023-05-23T13:40:05;19.73;;;5.80;;
6372;SDS011;3219;51.362;7.074;2023-05-23T13:42:33;9.43;;;4.50;;
6372;SDS011;3219;51.362;7.074;2023-05-23T13:45:00;10.18;;;3.53;;
6372;SDS011;3219;51.362;7.074;2023-05-23T13:47:28;11.48;;;4.18;;
6372;SDS011;3219;51.362;7.074;2023-05-23T13:49:55;8.68;;;3.85;;
6372;SDS011;3219;51.362;7.074;2023-05-23T13:52:23;7.75;;;3.47;;
6372;SDS011;3219;51.362;7.074;2023-05-23T13:54:50;7.18;;;3.45;;
6372;SDS011;3219;51.362;7.074;2023-05-23T13:57:18;6.95;;;3.90;;
6372;SDS011;3219;51.362;7.074;2023-05-23T13:59:44;7.65;;;3.30;;
6372;SDS011;3219;51.362;7.074;2023-05-23T14:02:11;12.57;;;3.30;;
6372;SDS011;3219;51.362;7.074;2023-05-23T14:04:38;8.32;;;3.53;;
6372;SDS011;3219;51.362;7.074;2023-05-23T14:07:04;8.32;;;3.45;;
6372;SDS011;3219;51.362;7.074;2023-05-23T14:09:33;12.05;;;4.38;;
6372;SDS011;3219;51.362;7.074;2023-05-23T14:12:00;6.68;;;3.35;;
6372;SDS011;3219;51.362;7.074;2023-05-23T14:14:29;10.10;;;3.42;;
6372;SDS011;3219;51.362;7.074;2023-05-23T14:16:57;6.50;;;3.33;;
6372;SDS011;3219;51.362;7.074;2023-05-23T14:19:24;9.93;;;4.38;;
6372;SDS011;3219;51.362;7.074;2023-05-23T14:21:50;10.52;;;3.75;;
6372;SDS011;3219;51.362;7.074;2023-05-23T14:24:17;11.48;;;4.53;;
6372;SDS011;3219;51.362;7.074;2023-05-23T14:26:47;9.65;;;3.92;;
6372;SDS011;3219;51.362;7.074;2023-05-23T14:29:14;8.48;;;2.78;;
6372;SDS011;3219;51.362;7.074;2023-05-23T14:31:41;7.72;;;3.17;;
6372;SDS011;3219;51.362;7.074;2023-05-23T14:34:07;7.88;;;3.08;;
6372;SDS011;3219;51.362;7.074;2023-05-23T14:36:35;6.30;;;3.45;;
6372;SDS011;3219;51.362;7.074;2023-05-23T14:39:02;8.80;;;3.13;;
6372;SDS011;3219;51.362;7.074;2023-05-23T14:41:29;9.20;;;3.53;;
6372;SDS011;3219;51.362;7.074;2023-05-23T14:43:58;7.50;;;3.45;;
6372;SDS011;3219;51.362;7.074;2023-05-23T14:46:25;5.75;;;2.78;;
6372;SDS011;3219;51.362;7.074;2023-05-23T14:48:52;8.10;;;2.65;;
6372;SDS011;3219;51.362;7.074;2023-05-23T14:51:18;8.30;;;2.80;;
6372;SDS011;3219;51.362;7.074;2023-05-23T14:53:45;10.93;;;3.80;;
6372;SDS011;3219;51.362;7.074;2023-05-23T14:56:12;10.07;;;2.83;;
6372;SDS011;3219;51.362;7.074;2023-05-23T14:58:39;8.05;;;2.72;;
6372;SDS011;3219;51.362;7.074;2023-05-23T15:01:11;9.13;;;3.03;;
6372;SDS011;3219;51.362;7.074;2023-05-23T15:03:37;6.45;;;3.10;;
6372;SDS011;3219;51.362;7.074;2023-05-23T15:06:04;5.95;;;2.72;;
6372;SDS011;3219;51.362;7.074;2023-05-23T15:08:31;6.78;;;3.00;;
6372;SDS011;3219;51.362;7.074;2023-05-23T15:10:59;8.05;;;3.72;;
6372;SDS011;3219;51.362;7.074;2023-05-23T15:13:26;6.88;;;3.10;;
6372;SDS011;3219;51.362;7.074;2023-05-23T15:15:52;9.70;;;4.07;;
6372;SDS011;3219;51.362;7.074;2023-05-23T15:18:21;7.35;;;2.58;;
6372;SDS011;3219;51.362;7.074;2023-05-23T15:20:49;5.70;;;2.83;;
6372;SDS011;3219;51.362;7.074;2023-05-23T15:23:16;7.10;;;3.22;;
6372;SDS011;3219;51.362;7.074;2023-05-23T15:25:43;5.65;;;1.90;;
6372;SDS011;3219;51.362;7.074;2023-05-23T15:28:10;8.40;;;2.13;;
6372;SDS011;3219;51.362;7.074;2023-05-23T15:30:36;8.23;;;2.70;;
6372;SDS011;3219;51.362;7.074;2023-05-23T15:33:03;8.23;;;3.42;;
6372;SDS011;3219;51.362;7.074;2023-05-23T15:35:32;6.63;;;2.80;;